sensor_id;sensor_type;location;lat;lon;timestamp;P1;durP1;ratioP1;P2;durP2;ratioP2
62071;SDS011;48031;48.542;13.232;2024-03-17T00:02:41;5.97;;;3.45;;
62071;SDS011;48031;48.542;13.232;2024-03-17T00:06:42;4.80;;;2.97;;
62071;SDS011;48031;48.542;13.232;2024-03-17T00:10:43;4.60;;;3.05;;
62071;SDS011;48031;48.542;13.232;2024-03-17T00:14:44;3.53;;;2.13;;
62071;SDS011;48031;48.542;13.232;2024-03-17T00:18:45;5.10;;;3.22;;
62071;SDS011;48031;48.542;13.232;2024-03-17T00:22:49;5.70;;;3.28;;
62071;SDS011;48031;48.542;13.232;2024-03-17T00:26:51;4.45;;;2.70;;
62071;SDS011;48031;48.542;13.232;2024-03-17T00:30:52;5.97;;;3.10;;
62071;SDS011;48031;48.542;13.232;2024-03-17T00:34:53;4.30;;;2.88;;
62071;SDS011;48031;48.542;13.232;2024-03-17T00:38:54;5.22;;;2.50;;
62071;SDS011;48031;48.542;13.232;2024-03-17T00:42:55;4.53;;;2.53;;
62071;SDS011;48031;48.542;13.232;2024-03-17T00:46:56;2.65;;;1.88;;
62071;SDS011;48031;48.542;13.232;2024-03-17T00:50:56;4.60;;;2.60;;
62071;SDS011;48031;48.542;13.232;2024-03-17T00:54:58;3.53;;;2.53;;
62071;SDS011;48031;48.542;13.232;2024-03-17T00:58:58;5.90;;;3.47;;
62071;SDS011;48031;48.542;13.232;2024-03-17T01:02:59;8.10;;;3.53;;
62071;SDS011;48031;48.542;13.232;2024-03-17T01:07:00;5.18;;;3.47;;
62071;SDS011;48031;48.542;13.232;2024-03-17T01:11:01;4.18;;;2.75;;
62071;SDS011;48031;48.542;13.232;2024-03-17T01:15:04;4.47;;;3.03;;
62071;SDS011;48031;48.542;13.232;2024-03-17T01:19:05;4.32;;;2.40;;
62071;SDS011;48031;48.542;13.232;2024-03-17T01:23:06;3.60;;;2.60;;
62071;SDS011;48031;48.542;13.232;2024-03-17T01:27:07;3.92;;;2.92;;
62071;SDS011;48031;48.542;13.232;2024-03-17T01:31:09;4.47;;;2.83;;
62071;SDS011;48031;48.542;13.232;2024-03-17T01:35:10;5.35;;;3.45;;
62071;SDS011;48031;48.542;13.232;2024-03-17T01:39:12;4.70;;;2.70;;
62071;SDS011;48031;48.542;13.232;2024-03-17T01:43:13;4.03;;;2.75;;
62071;SDS011;48031;48.542;13.232;2024-03-17T01:47:14;8.05;;;3.55;;
62071;SDS011;48031;48.542;13.232;2024-03-17T01:51:15;6.68;;;2.63;;
62071;SDS011;48031;48.542;13.232;2024-03-17T01:55:16;4.07;;;2.90;;
62071;SDS011;48031;48.542;13.232;2024-03-17T01:59:17;4.18;;;3.10;;
62071;SDS011;48031;48.542;13.232;2024-03-17T02:03:18;3.88;;;2.55;;
62071;SDS011;48031;48.542;13.232;2024-03-17T02:07:19;3.50;;;2.25;;
62071;SDS011;48031;48.542;13.232;2024-03-17T02:11:23;3.83;;;2.88;;
62071;SDS011;48031;48.542;13.232;2024-03-17T02:15:24;3.58;;;2.28;;
62071;SDS011;48031;48.542;13.232;2024-03-17T02:19:24;4.15;;;2.78;;
62071;SDS011;48031;48.542;13.232;2024-03-17T02:23:26;5.70;;;3.38;;
62071;SDS011;48031;48.542;13.232;2024-03-17T02:27:28;4.47;;;3.08;;
62071;SDS011;48031;48.542;13.232;2024-03-17T02:31:29;4.82;;;3.20;;
62071;SDS011;48031;48.542;13.232;2024-03-17T02:35:30;2.22;;;1.83;;
62071;SDS011;48031;48.542;13.232;2024-03-17T02:39:32;3.67;;;2.70;;
62071;SDS011;48031;48.542;13.232;2024-03-17T02:43:36;4.65;;;2.55;;
62071;SDS011;48031;48.542;13.232;2024-03-17T02:47:37;1.50;;;1.40;;
62071;SDS011;48031;48.542;13.232;2024-03-17T02:51:38;3.42;;;2.47;;
62071;SDS011;48031;48.542;13.232;2024-03-17T02:55:39;3.72;;;2.70;;
62071;SDS011;48031;48.542;13.232;2024-03-17T02:59:41;6.55;;;3.10;;
62071;SDS011;48031;48.542;13.232;2024-03-17T03:03:42;3.78;;;1.98;;
62071;SDS011;48031;48.542;13.232;2024-03-17T03:07:42;6.15;;;2.65;;
62071;SDS011;48031;48.542;13.232;2024-03-17T03:11:43;2.95;;;1.60;;
62071;SDS011;48031;48.542;13.232;2024-03-17T03:15:44;5.60;;;3.22;;
62071;SDS011;48031;48.542;13.232;2024-03-17T03:19:46;2.65;;;2.10;;
62071;SDS011;48031;48.542;13.232;2024-03-17T03:23:47;2.58;;;1.80;;
62071;SDS011;48031;48.542;13.232;2024-03-17T03:27:49;5.15;;;3.10;;
62071;SDS011;48031;48.542;13.232;2024-03-17T03:31:50;2.45;;;1.63;;
62071;SDS011;48031;48.542;13.232;2024-03-17T03:35:51;4.32;;;2.50;;
62071;SDS011;48031;48.542;13.232;2024-03-17T03:39:52;3.22;;;2.38;;
62071;SDS011;48031;48.542;13.232;2024-03-17T03:43:53;6.30;;;2.78;;
62071;SDS011;48031;48.542;13.232;2024-03-17T03:47:54;3.55;;;2.47;;
62071;SDS011;48031;48.542;13.232;2024-03-17T03:51:54;4.50;;;2.90;;
62071;SDS011;48031;48.542;13.232;2024-03-17T03:55:55;3.72;;;2.95;;
62071;SDS011;48031;48.542;13.232;2024-03-17T03:59:56;3.50;;;2.75;;
62071;SDS011;48031;48.542;13.232;2024-03-17T04:03:57;2.92;;;2.28;;
62071;SDS011;48031;48.542;13.232;2024-03-17T04:07:58;7.63;;;2.83;;
62071;SDS011;48031;48.542;13.232;2024-03-17T04:11:59;6.88;;;3.13;;
62071;SDS011;48031;48.542;13.232;2024-03-17T04:16:00;5.25;;;2.75;;
62071;SDS011;48031;48.542;13.232;2024-03-17T04:20:01;4.13;;;2.63;;
62071;SDS011;48031;48.542;13.232;2024-03-17T04:24:03;3.13;;;2.53;;
62071;SDS011;48031;48.542;13.232;2024-03-17T04:28:05;3.65;;;2.72;;
62071;SDS011;48031;48.542;13.232;2024-03-17T04:32:06;4.53;;;2.67;;
62071;SDS011;48031;48.542;13.232;2024-03-17T04:36:07;5.75;;;3.13;;
62071;SDS011;48031;48.542;13.232;2024-03-17T04:40:09;4.43;;;2.92;;
62071;SDS011;48031;48.542;13.232;2024-03-17T04:44:10;5.43;;;3.13;;
62071;SDS011;48031;48.542;13.232;2024-03-17T04:48:11;4.93;;;3.22;;
62071;SDS011;48031;48.542;13.232;2024-03-17T04:52:12;4.65;;;3.10;;
62071;SDS011;48031;48.542;13.232;2024-03-17T04:56:13;3.33;;;2.38;;
62071;SDS011;48031;48.542;13.232;2024-03-17T05:00:15;5.10;;;3.67;;
62071;SDS011;48031;48.542;13.232;2024-03-17T05:04:18;8.95;;;3.00;;
62071;SDS011;48031;48.542;13.232;2024-03-17T05:08:19;4.43;;;3.47;;
62071;SDS011;48031;48.542;13.232;2024-03-17T05:12:20;5.43;;;3.28;;
62071;SDS011;48031;48.542;13.232;2024-03-17T05:16:21;6.13;;;3.72;;
62071;SDS011;48031;48.542;13.232;2024-03-17T05:20:23;7.40;;;4.18;;
62071;SDS011;48031;48.542;13.232;2024-03-17T05:24:25;2.90;;;2.20;;
62071;SDS011;48031;48.542;13.232;2024-03-17T05:28:27;5.53;;;3.55;;
62071;SDS011;48031;48.542;13.232;2024-03-17T05:32:28;5.10;;;3.20;;
62071;SDS011;48031;48.542;13.232;2024-03-17T05:36:30;6.90;;;4.30;;
62071;SDS011;48031;48.542;13.232;2024-03-17T05:40:32;4.60;;;2.97;;
62071;SDS011;48031;48.542;13.232;2024-03-17T05:44:34;9.40;;;3.92;;
62071;SDS011;48031;48.542;13.232;2024-03-17T05:48:50;5.67;;;3.53;;
62071;SDS011;48031;48.542;13.232;2024-03-17T05:52:52;5.45;;;3.38;;
62071;SDS011;48031;48.542;13.232;2024-03-17T05:56:52;3.83;;;2.40;;
62071;SDS011;48031;48.542;13.232;2024-03-17T06:00:53;4.65;;;2.92;;
62071;SDS011;48031;48.542;13.232;2024-03-17T06:04:54;4.63;;;2.90;;
62071;SDS011;48031;48.542;13.232;2024-03-17T06:08:55;9.02;;;3.97;;
62071;SDS011;48031;48.542;13.232;2024-03-17T06:12:56;4.47;;;2.78;;
62071;SDS011;48031;48.542;13.232;2024-03-17T06:16:58;3.22;;;2.22;;
62071;SDS011;48031;48.542;13.232;2024-03-17T06:20:59;5.88;;;4.00;;
62071;SDS011;48031;48.542;13.232;2024-03-17T06:25:00;6.70;;;4.15;;
62071;SDS011;48031;48.542;13.232;2024-03-17T06:29:01;6.97;;;4.13;;
62071;SDS011;48031;48.542;13.232;2024-03-17T06:33:03;8.80;;;4.60;;
62071;SDS011;48031;48.542;13.232;2024-03-17T06:37:04;5.03;;;3.33;;
62071;SDS011;48031;48.542;13.232;2024-03-17T06:41:05;8.32;;;4.25;;
62071;SDS011;48031;48.542;13.232;2024-03-17T06:45:05;6.45;;;4.25;;
62071;SDS011;48031;48.542;13.232;2024-03-17T06:49:08;4.97;;;3.45;;
62071;SDS011;48031;48.542;13.232;2024-03-17T06:53:09;3.78;;;2.40;;
62071;SDS011;48031;48.542;13.232;2024-03-17T06:57:10;5.90;;;3.78;;
62071;SDS011;48031;48.542;13.232;2024-03-17T07:01:11;8.40;;;3.10;;
62071;SDS011;48031;48.542;13.232;2024-03-17T07:05:15;4.90;;;3.53;;
62071;SDS011;48031;48.542;13.232;2024-03-17T07:09:16;5.65;;;3.90;;
62071;SDS011;48031;48.542;13.232;2024-03-17T07:13:17;6.60;;;3.65;;
62071;SDS011;48031;48.542;13.232;2024-03-17T07:17:18;5.85;;;3.80;;
62071;SDS011;48031;48.542;13.232;2024-03-17T07:21:19;3.75;;;2.50;;
62071;SDS011;48031;48.542;13.232;2024-03-17T07:25:20;4.18;;;2.83;;
62071;SDS011;48031;48.542;13.232;2024-03-17T07:29:21;5.18;;;3.13;;
62071;SDS011;48031;48.542;13.232;2024-03-17T07:33:22;3.90;;;2.60;;
62071;SDS011;48031;48.542;13.232;2024-03-17T07:37:23;4.40;;;3.25;;
62071;SDS011;48031;48.542;13.232;2024-03-17T07:41:23;4.25;;;3.00;;
62071;SDS011;48031;48.542;13.232;2024-03-17T07:45:27;4.80;;;3.40;;
62071;SDS011;48031;48.542;13.232;2024-03-17T07:49:33;4.40;;;2.90;;
62071;SDS011;48031;48.542;13.232;2024-03-17T07:53:34;4.18;;;2.97;;
62071;SDS011;48031;48.542;13.232;2024-03-17T07:57:35;4.88;;;3.25;;
62071;SDS011;48031;48.542;13.232;2024-03-17T08:01:36;6.95;;;3.88;;
62071;SDS011;48031;48.542;13.232;2024-03-17T08:05:37;5.75;;;3.10;;
62071;SDS011;48031;48.542;13.232;2024-03-17T08:09:37;7.50;;;3.67;;
62071;SDS011;48031;48.542;13.232;2024-03-17T08:13:38;4.57;;;3.13;;
62071;SDS011;48031;48.542;13.232;2024-03-17T08:17:40;7.03;;;3.78;;
62071;SDS011;48031;48.542;13.232;2024-03-17T08:21:40;4.97;;;3.40;;
62071;SDS011;48031;48.542;13.232;2024-03-17T08:25:41;5.05;;;3.08;;
62071;SDS011;48031;48.542;13.232;2024-03-17T08:29:42;6.72;;;3.20;;
62071;SDS011;48031;48.542;13.232;2024-03-17T08:33:43;3.42;;;2.30;;
62071;SDS011;48031;48.542;13.232;2024-03-17T08:37:44;5.00;;;3.47;;
62071;SDS011;48031;48.542;13.232;2024-03-17T08:41:45;4.25;;;2.60;;
62071;SDS011;48031;48.542;13.232;2024-03-17T08:49:57;4.20;;;2.97;;
62071;SDS011;48031;48.542;13.232;2024-03-17T08:53:59;4.53;;;2.97;;
62071;SDS011;48031;48.542;13.232;2024-03-17T08:57:59;4.43;;;3.55;;
62071;SDS011;48031;48.542;13.232;2024-03-17T09:02:00;5.18;;;3.10;;
62071;SDS011;48031;48.542;13.232;2024-03-17T09:06:01;4.15;;;2.53;;
62071;SDS011;48031;48.542;13.232;2024-03-17T09:10:02;6.45;;;2.97;;
62071;SDS011;48031;48.542;13.232;2024-03-17T09:14:02;3.97;;;2.83;;
62071;SDS011;48031;48.542;13.232;2024-03-17T09:18:03;6.57;;;3.13;;
62071;SDS011;48031;48.542;13.232;2024-03-17T09:22:04;5.90;;;3.63;;
62071;SDS011;48031;48.542;13.232;2024-03-17T09:26:06;4.80;;;2.80;;
62071;SDS011;48031;48.542;13.232;2024-03-17T09:30:09;2.33;;;2.13;;
62071;SDS011;48031;48.542;13.232;2024-03-17T09:34:10;4.38;;;2.60;;
62071;SDS011;48031;48.542;13.232;2024-03-17T09:38:11;2.67;;;1.80;;
62071;SDS011;48031;48.542;13.232;2024-03-17T09:42:18;2.45;;;2.05;;
62071;SDS011;48031;48.542;13.232;2024-03-17T09:46:19;3.35;;;2.38;;
62071;SDS011;48031;48.542;13.232;2024-03-17T09:50:21;2.97;;;2.50;;
62071;SDS011;48031;48.542;13.232;2024-03-17T09:54:22;2.83;;;1.98;;
62071;SDS011;48031;48.542;13.232;2024-03-17T09:58:22;3.03;;;2.15;;
62071;SDS011;48031;48.542;13.232;2024-03-17T10:02:23;4.32;;;2.05;;
62071;SDS011;48031;48.542;13.232;2024-03-17T10:06:25;4.55;;;1.80;;
62071;SDS011;48031;48.542;13.232;2024-03-17T10:10:27;2.50;;;2.17;;
62071;SDS011;48031;48.542;13.232;2024-03-17T10:14:28;2.80;;;2.28;;
62071;SDS011;48031;48.542;13.232;2024-03-17T10:18:29;3.28;;;1.90;;
62071;SDS011;48031;48.542;13.232;2024-03-17T10:22:30;4.22;;;2.05;;
62071;SDS011;48031;48.542;13.232;2024-03-17T10:26:31;1.42;;;1.25;;
62071;SDS011;48031;48.542;13.232;2024-03-17T10:30:33;3.13;;;1.65;;
62071;SDS011;48031;48.542;13.232;2024-03-17T10:34:33;1.25;;;1.00;;
62071;SDS011;48031;48.542;13.232;2024-03-17T10:38:37;3.17;;;2.00;;
62071;SDS011;48031;48.542;13.232;2024-03-17T10:42:38;3.08;;;1.80;;
62071;SDS011;48031;48.542;13.232;2024-03-17T10:46:39;1.85;;;1.45;;
62071;SDS011;48031;48.542;13.232;2024-03-17T10:50:40;1.67;;;1.48;;
62071;SDS011;48031;48.542;13.232;2024-03-17T10:54:44;3.03;;;1.70;;
62071;SDS011;48031;48.542;13.232;2024-03-17T10:58:48;1.38;;;1.02;;
62071;SDS011;48031;48.542;13.232;2024-03-17T11:02:53;4.60;;;1.92;;
62071;SDS011;48031;48.542;13.232;2024-03-17T11:06:55;1.70;;;1.58;;
62071;SDS011;48031;48.542;13.232;2024-03-17T11:10:59;1.80;;;1.50;;
62071;SDS011;48031;48.542;13.232;2024-03-17T11:19:19;1.45;;;1.35;;
62071;SDS011;48031;48.542;13.232;2024-03-17T11:23:26;1.50;;;1.40;;
62071;SDS011;48031;48.542;13.232;2024-03-17T11:27:40;1.70;;;1.60;;
62071;SDS011;48031;48.542;13.232;2024-03-17T11:31:43;1.20;;;1.10;;
62071;SDS011;48031;48.542;13.232;2024-03-17T11:35:44;2.25;;;1.63;;
62071;SDS011;48031;48.542;13.232;2024-03-17T11:39:46;2.05;;;1.58;;
62071;SDS011;48031;48.542;13.232;2024-03-17T11:43:47;2.15;;;1.40;;
62071;SDS011;48031;48.542;13.232;2024-03-17T11:47:48;2.15;;;1.73;;
62071;SDS011;48031;48.542;13.232;2024-03-17T11:51:52;2.03;;;1.38;;
62071;SDS011;48031;48.542;13.232;2024-03-17T11:55:53;3.83;;;1.52;;
62071;SDS011;48031;48.542;13.232;2024-03-17T11:59:55;1.20;;;1.10;;
62071;SDS011;48031;48.542;13.232;2024-03-17T12:03:56;2.70;;;1.20;;
62071;SDS011;48031;48.542;13.232;2024-03-17T12:07:58;2.03;;;1.42;;
62071;SDS011;48031;48.542;13.232;2024-03-17T12:12:02;1.00;;;1.00;;
62071;SDS011;48031;48.542;13.232;2024-03-17T12:16:11;1.10;;;1.00;;
62071;SDS011;48031;48.542;13.232;2024-03-17T12:20:19;2.28;;;1.27;;
62071;SDS011;48031;48.542;13.232;2024-03-17T12:24:21;2.20;;;1.50;;
62071;SDS011;48031;48.542;13.232;2024-03-17T12:28:23;2.25;;;1.33;;
62071;SDS011;48031;48.542;13.232;2024-03-17T12:32:24;1.50;;;1.40;;
62071;SDS011;48031;48.542;13.232;2024-03-17T12:36:25;4.43;;;1.50;;
62071;SDS011;48031;48.542;13.232;2024-03-17T12:40:26;2.42;;;2.10;;
62071;SDS011;48031;48.542;13.232;2024-03-17T12:44:33;3.00;;;1.80;;
62071;SDS011;48031;48.542;13.232;2024-03-17T12:48:34;1.30;;;1.20;;
62071;SDS011;48031;48.542;13.232;2024-03-17T12:52:35;2.35;;;1.30;;
62071;SDS011;48031;48.542;13.232;2024-03-17T12:56:35;4.20;;;1.50;;
62071;SDS011;48031;48.542;13.232;2024-03-17T13:00:58;2.33;;;1.35;;
62071;SDS011;48031;48.542;13.232;2024-03-17T13:05:07;1.27;;;1.17;;
62071;SDS011;48031;48.542;13.232;2024-03-17T13:09:08;2.35;;;1.90;;
62071;SDS011;48031;48.542;13.232;2024-03-17T13:13:12;2.90;;;1.65;;
62071;SDS011;48031;48.542;13.232;2024-03-17T13:17:14;1.50;;;1.40;;
62071;SDS011;48031;48.542;13.232;2024-03-17T13:21:16;1.40;;;1.30;;
62071;SDS011;48031;48.542;13.232;2024-03-17T13:25:18;1.42;;;1.33;;
62071;SDS011;48031;48.542;13.232;2024-03-17T13:29:21;3.05;;;2.10;;
62071;SDS011;48031;48.542;13.232;2024-03-17T13:33:25;1.90;;;1.67;;
62071;SDS011;48031;48.542;13.232;2024-03-17T13:37:25;1.80;;;1.40;;
62071;SDS011;48031;48.542;13.232;2024-03-17T13:41:27;3.10;;;1.50;;
62071;SDS011;48031;48.542;13.232;2024-03-17T13:45:28;1.35;;;1.25;;
62071;SDS011;48031;48.542;13.232;2024-03-17T13:49:35;1.27;;;1.17;;
62071;SDS011;48031;48.542;13.232;2024-03-17T13:53:37;2.20;;;1.20;;
62071;SDS011;48031;48.542;13.232;2024-03-17T13:57:37;1.58;;;1.48;;
62071;SDS011;48031;48.542;13.232;2024-03-17T14:01:38;1.73;;;1.55;;
62071;SDS011;48031;48.542;13.232;2024-03-17T14:05:39;1.70;;;1.50;;
62071;SDS011;48031;48.542;13.232;2024-03-17T14:09:41;3.78;;;2.22;;
62071;SDS011;48031;48.542;13.232;2024-03-17T14:13:42;2.05;;;1.83;;
62071;SDS011;48031;48.542;13.232;2024-03-17T14:17:44;2.22;;;1.70;;
62071;SDS011;48031;48.542;13.232;2024-03-17T14:21:45;2.08;;;1.60;;
62071;SDS011;48031;48.542;13.232;2024-03-17T14:25:46;2.92;;;0.98;;
62071;SDS011;48031;48.542;13.232;2024-03-17T14:29:47;3.70;;;1.33;;
62071;SDS011;48031;48.542;13.232;2024-03-17T14:33:48;6.95;;;1.85;;
62071;SDS011;48031;48.542;13.232;2024-03-17T14:37:50;3.38;;;1.38;;
62071;SDS011;48031;48.542;13.232;2024-03-17T14:41:52;2.80;;;1.73;;
62071;SDS011;48031;48.542;13.232;2024-03-17T14:45:52;3.35;;;1.45;;
62071;SDS011;48031;48.542;13.232;2024-03-17T14:49:53;1.75;;;1.50;;
62071;SDS011;48031;48.542;13.232;2024-03-17T14:53:54;1.90;;;1.52;;
62071;SDS011;48031;48.542;13.232;2024-03-17T14:57:56;2.97;;;1.60;;
62071;SDS011;48031;48.542;13.232;2024-03-17T15:01:57;3.95;;;1.70;;
62071;SDS011;48031;48.542;13.232;2024-03-17T15:05:58;1.48;;;1.38;;
62071;SDS011;48031;48.542;13.232;2024-03-17T15:09:59;3.30;;;1.85;;
62071;SDS011;48031;48.542;13.232;2024-03-17T15:14:00;1.25;;;1.15;;
62071;SDS011;48031;48.542;13.232;2024-03-17T15:18:01;1.55;;;1.45;;
62071;SDS011;48031;48.542;13.232;2024-03-17T15:22:02;3.15;;;1.58;;
62071;SDS011;48031;48.542;13.232;2024-03-17T15:26:05;7.78;;;2.03;;
62071;SDS011;48031;48.542;13.232;2024-03-17T15:30:13;1.63;;;1.30;;
62071;SDS011;48031;48.542;13.232;2024-03-17T15:34:17;1.15;;;0.93;;
62071;SDS011;48031;48.542;13.232;2024-03-17T15:38:18;2.88;;;1.98;;
62071;SDS011;48031;48.542;13.232;2024-03-17T15:42:20;2.55;;;1.30;;
62071;SDS011;48031;48.542;13.232;2024-03-17T15:46:21;1.70;;;1.50;;
62071;SDS011;48031;48.542;13.232;2024-03-17T15:50:25;1.83;;;1.58;;
62071;SDS011;48031;48.542;13.232;2024-03-17T15:54:26;2.97;;;1.20;;
62071;SDS011;48031;48.542;13.232;2024-03-17T15:58:27;6.68;;;1.70;;
62071;SDS011;48031;48.542;13.232;2024-03-17T16:02:28;1.45;;;1.20;;
62071;SDS011;48031;48.542;13.232;2024-03-17T16:06:29;6.63;;;1.80;;
62071;SDS011;48031;48.542;13.232;2024-03-17T16:10:31;2.63;;;1.40;;
62071;SDS011;48031;48.542;13.232;2024-03-17T16:14:33;2.78;;;1.55;;
62071;SDS011;48031;48.542;13.232;2024-03-17T16:18:35;2.45;;;1.65;;
62071;SDS011;48031;48.542;13.232;2024-03-17T16:22:36;1.30;;;1.20;;
62071;SDS011;48031;48.542;13.232;2024-03-17T16:26:37;2.63;;;1.70;;
62071;SDS011;48031;48.542;13.232;2024-03-17T16:30:41;2.15;;;1.63;;
62071;SDS011;48031;48.542;13.232;2024-03-17T16:34:45;2.63;;;1.50;;
62071;SDS011;48031;48.542;13.232;2024-03-17T16:38:46;3.80;;;1.50;;
62071;SDS011;48031;48.542;13.232;2024-03-17T16:42:48;9.35;;;1.98;;
62071;SDS011;48031;48.542;13.232;2024-03-17T16:51:02;3.35;;;1.60;;
62071;SDS011;48031;48.542;13.232;2024-03-17T16:55:06;2.00;;;1.80;;
62071;SDS011;48031;48.542;13.232;2024-03-17T16:59:09;2.95;;;2.13;;
62071;SDS011;48031;48.542;13.232;2024-03-17T17:03:09;3.88;;;1.50;;
62071;SDS011;48031;48.542;13.232;2024-03-17T17:07:10;3.15;;;1.67;;
62071;SDS011;48031;48.542;13.232;2024-03-17T17:11:14;5.97;;;1.70;;
62071;SDS011;48031;48.542;13.232;2024-03-17T17:15:18;2.47;;;1.60;;
62071;SDS011;48031;48.542;13.232;2024-03-17T17:19:19;2.53;;;1.90;;
62071;SDS011;48031;48.542;13.232;2024-03-17T17:23:20;4.80;;;1.55;;
62071;SDS011;48031;48.542;13.232;2024-03-17T17:27:22;4.60;;;1.75;;
62071;SDS011;48031;48.542;13.232;2024-03-17T17:31:32;4.95;;;1.38;;
62071;SDS011;48031;48.542;13.232;2024-03-17T17:35:33;1.05;;;0.95;;
62071;SDS011;48031;48.542;13.232;2024-03-17T17:39:33;3.75;;;1.80;;
62071;SDS011;48031;48.542;13.232;2024-03-17T17:43:37;3.60;;;2.20;;
62071;SDS011;48031;48.542;13.232;2024-03-17T17:47:41;3.42;;;1.80;;
62071;SDS011;48031;48.542;13.232;2024-03-17T17:51:42;1.88;;;1.67;;
62071;SDS011;48031;48.542;13.232;2024-03-17T17:55:42;3.25;;;2.40;;
62071;SDS011;48031;48.542;13.232;2024-03-17T17:59:43;2.72;;;2.05;;
62071;SDS011;48031;48.542;13.232;2024-03-17T18:03:44;3.53;;;2.53;;
62071;SDS011;48031;48.542;13.232;2024-03-17T18:07:46;2.60;;;1.70;;
62071;SDS011;48031;48.542;13.232;2024-03-17T18:11:46;8.82;;;3.47;;
62071;SDS011;48031;48.542;13.232;2024-03-17T18:15:57;11.05;;;6.22;;
62071;SDS011;48031;48.542;13.232;2024-03-17T18:19:57;4.40;;;2.53;;
62071;SDS011;48031;48.542;13.232;2024-03-17T18:23:58;17.05;;;5.95;;
62071;SDS011;48031;48.542;13.232;2024-03-17T18:27:59;13.85;;;7.22;;
62071;SDS011;48031;48.542;13.232;2024-03-17T18:32:01;10.07;;;5.38;;
62071;SDS011;48031;48.542;13.232;2024-03-17T18:36:05;8.20;;;5.00;;
62071;SDS011;48031;48.542;13.232;2024-03-17T18:40:09;9.38;;;3.75;;
62071;SDS011;48031;48.542;13.232;2024-03-17T18:44:11;7.03;;;3.15;;
62071;SDS011;48031;48.542;13.232;2024-03-17T18:48:12;6.45;;;3.00;;
62071;SDS011;48031;48.542;13.232;2024-03-17T18:52:14;3.53;;;2.22;;
62071;SDS011;48031;48.542;13.232;2024-03-17T18:56:16;4.03;;;3.13;;
62071;SDS011;48031;48.542;13.232;2024-03-17T19:00:16;3.85;;;2.70;;
62071;SDS011;48031;48.542;13.232;2024-03-17T19:04:18;4.30;;;2.65;;
62071;SDS011;48031;48.542;13.232;2024-03-17T19:08:19;3.33;;;2.13;;
62071;SDS011;48031;48.542;13.232;2024-03-17T19:12:20;3.75;;;2.60;;
62071;SDS011;48031;48.542;13.232;2024-03-17T19:16:21;4.18;;;2.42;;
62071;SDS011;48031;48.542;13.232;2024-03-17T19:20:22;6.13;;;3.60;;
62071;SDS011;48031;48.542;13.232;2024-03-17T19:24:23;7.88;;;4.55;;
62071;SDS011;48031;48.542;13.232;2024-03-17T19:28:23;9.82;;;3.83;;
62071;SDS011;48031;48.542;13.232;2024-03-17T19:32:24;9.93;;;6.50;;
62071;SDS011;48031;48.542;13.232;2024-03-17T19:36:27;10.73;;;5.95;;
62071;SDS011;48031;48.542;13.232;2024-03-17T19:40:27;6.10;;;3.17;;
62071;SDS011;48031;48.542;13.232;2024-03-17T19:44:29;6.60;;;3.63;;
62071;SDS011;48031;48.542;13.232;2024-03-17T19:48:30;5.13;;;3.42;;
62071;SDS011;48031;48.542;13.232;2024-03-17T19:52:31;4.72;;;2.15;;
62071;SDS011;48031;48.542;13.232;2024-03-17T19:56:32;7.13;;;3.85;;
62071;SDS011;48031;48.542;13.232;2024-03-17T20:00:33;5.63;;;3.55;;
62071;SDS011;48031;48.542;13.232;2024-03-17T20:04:33;6.20;;;3.67;;
62071;SDS011;48031;48.542;13.232;2024-03-17T20:08:35;13.02;;;3.80;;
62071;SDS011;48031;48.542;13.232;2024-03-17T20:12:36;9.25;;;3.20;;
62071;SDS011;48031;48.542;13.232;2024-03-17T20:16:36;5.10;;;2.83;;
62071;SDS011;48031;48.542;13.232;2024-03-17T20:20:38;8.07;;;4.40;;
62071;SDS011;48031;48.542;13.232;2024-03-17T20:24:39;7.95;;;4.60;;
62071;SDS011;48031;48.542;13.232;2024-03-17T20:28:42;7.93;;;4.47;;
62071;SDS011;48031;48.542;13.232;2024-03-17T20:32:43;14.07;;;4.35;;
62071;SDS011;48031;48.542;13.232;2024-03-17T20:36:44;8.00;;;4.38;;
62071;SDS011;48031;48.542;13.232;2024-03-17T20:40:44;5.45;;;4.10;;
62071;SDS011;48031;48.542;13.232;2024-03-17T20:44:45;9.35;;;3.65;;
62071;SDS011;48031;48.542;13.232;2024-03-17T20:48:47;15.65;;;4.00;;
62071;SDS011;48031;48.542;13.232;2024-03-17T20:52:48;9.93;;;3.78;;
62071;SDS011;48031;48.542;13.232;2024-03-17T20:56:49;6.45;;;3.80;;
62071;SDS011;48031;48.542;13.232;2024-03-17T21:00:51;4.35;;;3.08;;
62071;SDS011;48031;48.542;13.232;2024-03-17T21:04:52;7.18;;;3.45;;
62071;SDS011;48031;48.542;13.232;2024-03-17T21:08:53;5.70;;;3.83;;
62071;SDS011;48031;48.542;13.232;2024-03-17T21:12:54;5.53;;;3.75;;
62071;SDS011;48031;48.542;13.232;2024-03-17T21:16:55;6.63;;;3.38;;
62071;SDS011;48031;48.542;13.232;2024-03-17T21:21:01;5.72;;;2.88;;
62071;SDS011;48031;48.542;13.232;2024-03-17T21:29:10;3.58;;;2.97;;
62071;SDS011;48031;48.542;13.232;2024-03-17T21:33:11;3.17;;;2.88;;
62071;SDS011;48031;48.542;13.232;2024-03-17T21:37:16;4.72;;;3.40;;
62071;SDS011;48031;48.542;13.232;2024-03-17T21:41:17;4.85;;;3.08;;
62071;SDS011;48031;48.542;13.232;2024-03-17T21:45:20;3.72;;;2.72;;
62071;SDS011;48031;48.542;13.232;2024-03-17T21:49:21;3.65;;;2.67;;
62071;SDS011;48031;48.542;13.232;2024-03-17T21:53:22;4.40;;;2.85;;
62071;SDS011;48031;48.542;13.232;2024-03-17T21:57:23;4.15;;;3.30;;
62071;SDS011;48031;48.542;13.232;2024-03-17T22:01:24;4.80;;;2.95;;
62071;SDS011;48031;48.542;13.232;2024-03-17T22:05:25;4.03;;;3.00;;
62071;SDS011;48031;48.542;13.232;2024-03-17T22:09:26;5.72;;;2.92;;
62071;SDS011;48031;48.542;13.232;2024-03-17T22:13:28;4.78;;;2.88;;
62071;SDS011;48031;48.542;13.232;2024-03-17T22:17:30;4.65;;;3.00;;
62071;SDS011;48031;48.542;13.232;2024-03-17T22:21:33;4.18;;;2.90;;
62071;SDS011;48031;48.542;13.232;2024-03-17T22:25:33;7.28;;;2.05;;
62071;SDS011;48031;48.542;13.232;2024-03-17T22:29:34;10.60;;;3.20;;
62071;SDS011;48031;48.542;13.232;2024-03-17T22:33:35;8.45;;;2.95;;
62071;SDS011;48031;48.542;13.232;2024-03-17T22:37:39;3.55;;;2.92;;
62071;SDS011;48031;48.542;13.232;2024-03-17T22:41:39;4.40;;;3.30;;
62071;SDS011;48031;48.542;13.232;2024-03-17T22:45:42;5.43;;;3.47;;
62071;SDS011;48031;48.542;13.232;2024-03-17T22:49:43;3.15;;;2.72;;
62071;SDS011;48031;48.542;13.232;2024-03-17T22:53:44;3.85;;;3.17;;
62071;SDS011;48031;48.542;13.232;2024-03-17T22:57:46;3.05;;;2.72;;
62071;SDS011;48031;48.542;13.232;2024-03-17T23:01:47;4.57;;;2.75;;
62071;SDS011;48031;48.542;13.232;2024-03-17T23:05:48;3.78;;;2.83;;
62071;SDS011;48031;48.542;13.232;2024-03-17T23:09:49;4.85;;;2.97;;
62071;SDS011;48031;48.542;13.232;2024-03-17T23:13:51;5.28;;;3.78;;
62071;SDS011;48031;48.542;13.232;2024-03-17T23:17:52;3.22;;;2.08;;
62071;SDS011;48031;48.542;13.232;2024-03-17T23:21:53;4.18;;;2.88;;
62071;SDS011;48031;48.542;13.232;2024-03-17T23:25:54;5.90;;;3.47;;
62071;SDS011;48031;48.542;13.232;2024-03-17T23:29:55;5.40;;;3.80;;
62071;SDS011;48031;48.542;13.232;2024-03-17T23:33:55;4.32;;;3.20;;
62071;SDS011;48031;48.542;13.232;2024-03-17T23:42:03;1.88;;;1.50;;
62071;SDS011;48031;48.542;13.232;2024-03-17T23:46:05;4.25;;;3.35;;
62071;SDS011;48031;48.542;13.232;2024-03-17T23:50:09;5.70;;;3.53;;
62071;SDS011;48031;48.542;13.232;2024-03-17T23:54:10;3.80;;;2.22;;
62071;SDS011;48031;48.542;13.232;2024-03-17T23:58:11;4.95;;;3.60;;
